Time;durP1;ratioP1;P1;durP2;ratioP2;P2;SDS_P1;SDS_P2;PMS_P1;PMS_P2;Temp;Humidity;BMP_temperature;BMP_pressure;BME280_temperature;BME280_humidity;BME280_pressure;Samples;Min_cycle;Max_cycle;Signal;HPM_P1;HPM_P2
2022/01/11 00:01:23;;;;;;;;;10.80;9.60;;;;;-0.64;88.12;101296.50;5105522;28;9091;-57
2022/01/11 00:03:52;;;;;;;;;8.40;8.20;;;;;-0.67;87.95;101296.56;5105361;28;8871;-57
2022/01/11 00:06:29;;;;;;;;;1.80;1.80;;;;;-0.70;87.73;101311.41;5105243;28;9516;-57
2022/01/11 00:09:01;;;;;;;;;10.20;8.60;;;;;-0.73;88.10;101307.09;5106310;28;9332;-57
2022/01/11 00:11:29;;;;;;;;;8.40;7.00;;;;;-0.76;87.58;101311.50;5111997;28;8836;-57
2022/01/11 00:13:56;;;;;;;;;4.40;4.40;;;;;-0.77;88.02;101313.22;5109992;28;8855;-57
2022/01/11 00:16:24;;;;;;;;;9.20;8.80;;;;;-0.78;87.85;101315.88;5110763;28;8832;-57
2022/01/11 00:18:52;;;;;;;;;6.40;5.60;;;;;-0.78;88.06;101314.09;5110204;28;8863;-58
2022/01/11 00:21:20;;;;;;;;;4.00;4.00;;;;;-0.77;88.01;101312.38;5111526;28;8879;-57
2022/01/11 00:26:33;;;;;;;;;8.80;8.80;;;;;-0.78;87.99;101321.09;5109980;28;8871;-57
2022/01/11 00:29:00;;;;;;;;;10.20;8.20;;;;;-0.79;88.07;101311.50;5109968;28;8848;-57
2022/01/11 00:31:28;;;;;;;;;7.80;7.00;;;;;-0.78;87.90;101311.50;5109590;28;8836;-57
2022/01/11 00:33:56;;;;;;;;;8.40;7.80;;;;;-0.77;88.03;101320.22;5111006;28;9493;-57
2022/01/11 00:36:30;;;;;;;;;6.60;6.00;;;;;-0.75;87.97;101318.44;5110558;28;8847;-58
2022/01/11 00:38:57;;;;;;;;;7.40;7.00;;;;;-0.73;87.93;101319.28;5110143;28;8883;-57
2022/01/11 00:41:25;;;;;;;;;12.00;11.60;;;;;-0.71;88.36;101326.22;5109891;28;8870;-57
2022/01/11 00:43:53;;;;;;;;;7.60;6.40;;;;;-0.70;88.17;101324.50;5111070;28;8848;-57
2022/01/11 00:46:21;;;;;;;;;12.00;10.00;;;;;-0.73;87.80;101322.78;5110144;28;9231;-57
2022/01/11 00:48:48;;;;;;;;;7.40;6.20;;;;;-0.74;88.27;101322.78;5109591;28;8851;-58
2022/01/11 00:51:16;;;;;;;;;6.60;6.00;;;;;-0.78;87.76;101328.94;5109534;28;8844;-57
2022/01/11 00:53:44;;;;;;;;;5.40;5.20;;;;;-0.82;87.64;101322.88;5109586;28;8832;-58
2022/01/11 00:56:12;;;;;;;;;8.00;6.40;;;;;-0.84;87.94;101322.03;5109775;28;8839;-57
2022/01/11 00:58:39;;;;;;;;;3.00;3.00;;;;;-0.89;87.97;101318.63;5110084;28;8832;-58
2022/01/11 01:01:07;;;;;;;;;6.20;6.00;;;;;-0.92;87.87;101315.16;5109996;28;9093;-57
2022/01/11 01:03:35;;;;;;;;;5.40;4.80;;;;;-0.94;87.80;101316.91;5109654;28;9133;-57
2022/01/11 01:06:03;;;;;;;;;3.80;3.00;;;;;-0.96;88.11;101323.91;5109939;28;8879;-57
2022/01/11 01:08:30;;;;;;;;;3.80;3.80;;;;;-1.00;88.08;101323.06;5109233;28;8844;-58
2022/01/11 01:10:58;;;;;;;;;4.40;4.40;;;;;-1.00;88.11;101319.63;5108805;28;9539;-57
2022/01/11 01:13:26;;;;;;;;;8.60;7.80;;;;;-1.00;88.02;101320.47;5109492;28;8844;-57
2022/01/11 01:15:53;;;;;;;;;4.00;3.80;;;;;-1.00;88.07;101328.31;5107653;28;8820;-57
2022/01/11 01:18:22;;;;;;;;;7.00;6.60;;;;;-1.02;87.92;101322.25;5109652;28;8847;-57
2022/01/11 01:20:49;;;;;;;;;6.60;6.20;;;;;-1.05;88.32;101327.50;5108843;28;8851;-57
2022/01/11 01:23:17;;;;;;;;;2.60;2.20;;;;;-1.08;88.18;101330.13;5110253;28;8887;-57
2022/01/11 01:25:45;;;;;;;;;8.60;7.20;;;;;-1.10;87.76;101333.63;5110454;28;8835;-58
2022/01/11 01:28:12;;;;;;;;;9.00;4.00;;;;;-1.11;88.16;101334.53;5110379;28;8858;-57
2022/01/11 01:30:40;;;;;;;;;5.40;5.40;;;;;-1.13;88.34;101337.16;5109812;28;8832;-57
2022/01/11 01:33:08;;;;;;;;;7.60;6.60;;;;;-1.13;88.01;101336.31;5110418;28;8977;-57
2022/01/11 01:35:39;;;;;;;;;8.20;6.80;;;;;-1.12;87.79;101346.75;5110678;28;8816;-57
2022/01/11 01:38:07;;;;;;;;;4.20;3.60;;;;;-1.11;87.84;101345.88;5109675;28;8879;-57
2022/01/11 01:40:39;;;;;;;;;3.40;3.40;;;;;-1.09;87.96;101340.59;5109036;28;8982;-57
2022/01/11 01:43:08;;;;;;;;;13.60;12.60;;;;;-1.09;88.31;101344.09;5109108;28;9264;-58
2022/01/11 01:45:36;;;;;;;;;10.40;6.60;;;;;-1.07;87.98;101350.16;5110502;28;9119;-57
2022/01/11 01:48:03;;;;;;;;;9.20;6.40;;;;;-1.06;88.88;101351.03;5109580;28;8866;-58
2022/01/11 01:50:31;;;;;;;;;5.20;4.60;;;;;-1.03;88.13;101354.47;5106778;28;8843;-58
2022/01/11 01:52:59;;;;;;;;;7.20;6.40;;;;;-1.00;87.83;101354.44;5110467;28;8835;-57
2022/01/11 01:55:27;;;;;;;;;7.00;7.00;;;;;-0.99;87.59;101356.16;5109159;28;8836;-57
2022/01/11 01:57:55;;;;;;;;;4.80;4.80;;;;;-1.01;88.49;101359.72;5109901;28;9113;-57
2022/01/11 02:00:24;;;;;;;;;6.80;6.80;;;;;-1.00;87.73;101354.44;5109079;28;8853;-57
2022/01/11 02:02:51;;;;;;;;;4.00;4.00;;;;;-1.00;88.21;101353.59;5108497;28;9037;-57
2022/01/11 02:05:19;;;;;;;;;0.80;0.00;;;;;-1.02;88.10;101364.06;5109715;28;8854;-57
2022/01/11 02:07:47;;;;;;;;;9.00;8.60;;;;;-1.04;87.76;101357.09;5109413;28;9500;-57
2022/01/11 02:10:14;;;;;;;;;2.60;1.40;;;;;-1.05;87.59;101360.59;5108029;28;8846;-58
2022/01/11 02:12:42;;;;;;;;;3.40;3.00;;;;;-1.06;88.25;101367.56;5108702;28;8849;-58
2022/01/11 02:15:10;;;;;;;;;6.60;5.60;;;;;-1.05;87.84;101366.72;5108113;28;8844;-58
2022/01/11 02:17:38;;;;;;;;;4.80;4.80;;;;;-1.06;88.04;101367.56;5109242;28;8836;-57
2022/01/11 02:20:06;;;;;;;;;4.20;4.00;;;;;-1.07;87.97;101367.59;5109788;28;9176;-57
2022/01/11 02:22:34;;;;;;;;;6.00;6.00;;;;;-1.07;88.19;101378.06;5110096;28;8843;-57
2022/01/11 02:25:01;;;;;;;;;3.80;2.00;;;;;-1.08;88.20;101378.94;5110080;28;8858;-57
2022/01/11 02:27:29;;;;;;;;;9.40;8.80;;;;;-1.09;87.63;101377.19;5110841;28;8963;-57
2022/01/11 02:29:57;;;;;;;;;5.60;5.60;;;;;-1.10;88.17;101378.06;5109614;28;8862;-57
2022/01/11 02:32:24;;;;;;;;;6.20;5.20;;;;;-1.12;87.62;101383.31;5109303;28;8879;-58
2022/01/11 02:34:52;;;;;;;;;6.40;6.40;;;;;-1.10;88.38;101383.28;5109600;28;9116;-57
2022/01/11 02:37:20;;;;;;;;;4.00;4.00;;;;;-1.12;87.43;101378.09;5110526;28;8836;-57
2022/01/11 02:39:48;;;;;;;;;7.00;6.00;;;;;-1.11;87.93;101382.44;5109142;28;9269;-57
2022/01/11 02:42:15;;;;;;;;;9.40;7.80;;;;;-1.09;87.95;101390.25;5109836;28;8847;-58
2022/01/11 02:44:43;;;;;;;;;5.60;5.20;;;;;-1.10;88.09;101391.13;5109606;28;8832;-58
2022/01/11 02:47:11;;;;;;;;;4.00;4.00;;;;;-1.12;88.08;101398.13;5109872;28;8855;-57
2022/01/11 02:49:38;;;;;;;;;5.60;5.20;;;;;-1.15;87.41;101395.56;5109733;28;9272;-57
2022/01/11 02:52:06;;;;;;;;;5.60;4.00;;;;;-1.19;87.53;101396.44;5109645;28;8874;-57
2022/01/11 02:54:33;;;;;;;;;9.80;9.60;;;;;-1.23;87.34;101399.97;5109879;28;8893;-58
2022/01/11 02:57:01;;;;;;;;;6.20;5.00;;;;;-1.28;87.78;101404.38;5107433;28;8843;-58
2022/01/11 02:59:29;;;;;;;;;5.60;4.00;;;;;-1.28;88.06;101399.13;5109104;28;8851;-58
2022/01/11 03:01:57;;;;;;;;;0.00;0.00;;;;;-1.30;87.75;101399.16;5108853;28;8843;-58
2022/01/11 03:04:28;;;;;;;;;4.40;4.40;;;;;-1.27;88.21;101400.88;5108198;28;8855;-58
2022/01/11 03:06:56;;;;;;;;;6.60;6.60;;;;;-1.24;88.23;101401.72;5109729;28;8836;-58
2022/01/11 03:09:26;;;;;;;;;0.20;0.20;;;;;-1.21;88.24;101398.22;5108440;28;8901;-58
2022/01/11 03:11:55;;;;;;;;;8.40;6.80;;;;;-1.18;88.01;101400.78;5109144;28;8847;-58
2022/01/11 03:14:23;;;;;;;;;6.40;4.80;;;;;-1.18;88.19;101401.66;5108056;28;8852;-58
2022/01/11 03:16:51;;;;;;;;;0.40;0.00;;;;;-1.20;88.10;101403.44;5109314;28;8828;-58
2022/01/11 03:19:19;;;;;;;;;7.00;6.00;;;;;-1.21;88.31;101400.81;5107880;28;8848;-58
2022/01/11 03:21:46;;;;;;;;;1.40;1.40;;;;;-1.24;87.77;101406.06;5108234;28;8844;-58
2022/01/11 03:24:14;;;;;;;;;4.40;4.40;;;;;-1.28;87.77;101404.38;5110287;28;9525;-58
2022/01/11 03:26:42;;;;;;;;;5.80;4.80;;;;;-1.29;87.98;101402.63;5108652;28;8836;-58
2022/01/11 03:29:10;;;;;;;;;4.00;2.40;;;;;-1.33;87.95;101409.63;5108993;28;8870;-58
2022/01/11 03:31:38;;;;;;;;;6.00;6.00;;;;;-1.35;87.76;101413.13;5107973;28;8870;-58
2022/01/11 03:34:06;;;;;;;;;4.80;4.40;;;;;-1.37;87.20;101414.91;5108383;28;8843;-58
2022/01/11 03:36:34;;;;;;;;;3.20;2.40;;;;;-1.40;87.72;101417.50;5110395;28;8830;-58
2022/01/11 03:39:01;;;;;;;;;0.40;0.40;;;;;-1.41;87.58;101414.06;5108257;28;8848;-58
2022/01/11 03:41:29;;;;;;;;;4.60;4.60;;;;;-1.43;88.13;101408.00;5107364;28;8890;-58
2022/01/11 03:43:57;;;;;;;;;0.00;0.00;;;;;-1.42;87.58;101414.06;5109938;28;8832;-58
2022/01/11 03:46:25;;;;;;;;;7.40;6.20;;;;;-1.43;88.08;101407.09;5113060;28;8854;-57
2022/01/11 03:48:53;;;;;;;;;4.00;4.00;;;;;-1.41;87.92;101407.94;5113376;28;8848;-57
2022/01/11 03:51:20;;;;;;;;;6.80;6.80;;;;;-1.43;88.00;101412.31;5112141;28;8871;-57
2022/01/11 03:53:55;;;;;;;;;4.00;3.20;;;;;-1.46;87.09;101410.59;5112192;28;8851;-58
2022/01/11 03:56:23;;;;;;;;;7.40;7.40;;;;;-1.49;88.37;101414.97;5112812;28;8843;-57
2022/01/11 03:58:51;;;;;;;;;2.60;2.20;;;;;-1.51;87.90;101416.75;5113685;28;8851;-57
2022/01/11 04:01:18;;;;;;;;;3.00;3.00;;;;;-1.54;87.92;101416.75;5112665;28;9229;-57
2022/01/11 04:03:47;;;;;;;;;1.00;1.00;;;;;-1.56;87.58;101418.50;5113280;28;8827;-57
2022/01/11 04:06:16;;;;;;;;;3.20;3.00;;;;;-1.61;87.71;101415.94;5111787;28;8851;-58
2022/01/11 04:08:44;;;;;;;;;5.60;5.60;;;;;-1.62;87.83;101421.16;5112470;28;8855;-57
2022/01/11 04:11:11;;;;;;;;;5.20;5.20;;;;;-1.66;87.67;101427.28;5112621;28;8834;-57
2022/01/11 04:13:39;;;;;;;;;4.60;4.60;;;;;-1.69;87.81;101419.47;5111745;28;8974;-57
2022/01/11 04:16:07;;;;;;;;;5.60;5.60;;;;;-1.72;87.87;101422.09;5112693;28;9481;-58
2022/01/11 04:18:35;;;;;;;;;7.40;7.40;;;;;-1.74;87.92;101419.50;5113760;28;8895;-58
2022/01/11 04:21:03;;;;;;;;;3.60;3.40;;;;;-1.72;88.00;101420.38;5111120;28;8843;-57
2022/01/11 04:23:30;;;;;;;;;5.00;3.20;;;;;-1.71;88.13;101422.09;5112774;28;8871;-58
2022/01/11 04:25:59;;;;;;;;;2.60;2.60;;;;;-1.70;88.31;101420.34;5113632;28;9153;-58
2022/01/11 04:28:27;;;;;;;;;4.00;4.00;;;;;-1.71;88.03;101421.22;5111557;28;9214;-58
2022/01/11 04:30:57;;;;;;;;;3.80;3.80;;;;;-1.70;87.94;101422.97;5109756;28;8874;-58
2022/01/11 04:33:25;;;;;;;;;4.00;4.00;;;;;-1.68;87.73;101422.06;5112159;28;8840;-58
2022/01/11 04:35:53;;;;;;;;;5.20;5.20;;;;;-1.67;87.86;101422.97;5112139;28;8867;-58
2022/01/11 04:38:21;;;;;;;;;5.60;4.00;;;;;-1.66;87.94;101424.69;5110574;28;8831;-57
2022/01/11 04:40:48;;;;;;;;;2.40;2.40;;;;;-1.67;87.70;101431.63;5109381;28;8824;-58
2022/01/11 04:43:16;;;;;;;;;4.20;3.40;;;;;-1.69;88.33;101436.00;5109625;28;9148;-58
2022/01/11 04:45:44;;;;;;;;;3.60;3.20;;;;;-1.68;87.70;101434.28;5111603;28;8882;-58
2022/01/11 04:48:12;;;;;;;;;0.80;0.20;;;;;-1.70;88.48;101436.88;5112180;28;8908;-58
2022/01/11 04:50:40;;;;;;;;;2.20;1.40;;;;;-1.71;87.64;101440.38;5108869;28;8843;-59
2022/01/11 04:53:07;;;;;;;;;1.80;1.80;;;;;-1.73;87.96;101439.53;5110927;28;8859;-58
2022/01/11 04:55:35;;;;;;;;;1.40;1.40;;;;;-1.73;87.67;101438.66;5111910;28;9265;-58
2022/01/11 04:58:03;;;;;;;;;8.40;6.00;;;;;-1.74;88.08;101436.91;5109483;28;8844;-58
2022/01/11 05:00:31;;;;;;;;;6.40;4.80;;;;;-1.74;87.49;101440.38;5109872;28;9485;-58
2022/01/11 05:02:59;;;;;;;;;1.60;1.40;;;;;-1.74;88.01;101440.38;5110733;28;9204;-58
2022/01/11 05:05:28;;;;;;;;;4.00;4.00;;;;;-1.73;88.13;101442.13;5111784;28;8855;-58
2022/01/11 05:07:56;;;;;;;;;0.00;0.00;;;;;-1.72;87.55;101448.22;5110947;28;8872;-58
2022/01/11 05:10:24;;;;;;;;;4.40;4.00;;;;;-1.71;87.87;101447.34;5111591;28;8852;-59
2022/01/11 05:12:51;;;;;;;;;1.40;1.40;;;;;-1.71;87.84;101447.34;5110815;28;8832;-59
2022/01/11 05:15:19;;;;;;;;;3.00;3.00;;;;;-1.71;87.94;101444.72;5111094;28;8844;-59
2022/01/11 05:17:48;;;;;;;;;2.80;2.80;;;;;-1.71;87.91;101456.03;5110688;28;8839;-58
2022/01/11 05:20:17;;;;;;;;;3.60;3.60;;;;;-1.70;87.93;101449.06;5112321;28;8844;-59
2022/01/11 05:22:45;;;;;;;;;0.20;0.20;;;;;-1.71;87.90;101449.94;5110491;28;8869;-58
2022/01/11 05:25:14;;;;;;;;;4.00;4.00;;;;;-1.73;87.58;101446.47;5110071;28;9540;-59
2022/01/11 05:27:42;;;;;;;;;3.00;3.00;;;;;-1.73;87.68;101441.25;5108693;28;8840;-59
2022/01/11 05:30:09;;;;;;;;;0.00;0.00;;;;;-1.74;87.86;101449.97;5108587;28;8842;-59
2022/01/11 05:32:37;;;;;;;;;4.40;4.00;;;;;-1.74;87.81;101445.59;5110253;28;8846;-59
2022/01/11 05:35:05;;;;;;;;;2.20;2.20;;;;;-1.74;88.14;101448.22;5109549;28;8855;-59
2022/01/11 05:37:33;;;;;;;;;1.00;1.00;;;;;-1.73;87.92;101446.47;5108757;28;8843;-59
2022/01/11 05:40:00;;;;;;;;;4.00;3.40;;;;;-1.74;87.77;101449.97;5110316;28;8863;-58
2022/01/11 05:42:28;;;;;;;;;3.00;3.00;;;;;-1.73;87.67;101451.69;5109593;28;8856;-58
2022/01/11 05:44:56;;;;;;;;;3.20;3.20;;;;;-1.73;87.58;101462.16;5107971;28;8854;-58
2022/01/11 05:47:24;;;;;;;;;1.00;1.00;;;;;-1.74;87.77;101465.63;5109174;28;8866;-58
2022/01/11 05:49:52;;;;;;;;;4.40;4.40;;;;;-1.76;88.21;101462.19;5110627;28;9122;-58
2022/01/11 05:52:19;;;;;;;;;1.00;1.00;;;;;-1.77;87.89;101470.84;5108858;28;8866;-58
2022/01/11 05:54:47;;;;;;;;;7.40;4.80;;;;;-1.79;87.55;101478.72;5108213;28;8832;-59
2022/01/11 05:57:15;;;;;;;;;3.00;3.00;;;;;-1.80;87.81;101470.88;5108880;28;9545;-58
2022/01/11 05:59:43;;;;;;;;;1.00;1.00;;;;;-1.79;87.98;101475.22;5108809;28;8973;-58
2022/01/11 06:02:10;;;;;;;;;4.00;1.00;;;;;-1.82;87.75;101478.72;5107118;28;8887;-59
2022/01/11 06:04:39;;;;;;;;;5.80;3.60;;;;;-1.84;87.77;101480.47;5106072;28;8936;-59
2022/01/11 06:07:06;;;;;;;;;3.80;3.00;;;;;-1.87;87.31;101479.63;5105382;28;8847;-59
2022/01/11 06:09:34;;;;;;;;;6.00;5.20;;;;;-1.90;88.18;101480.50;5083318;28;8872;-59
2022/01/11 06:12:01;;;;;;;;;9.00;7.40;;;;;-1.94;87.57;101478.78;5079477;28;8873;-59
2022/01/11 06:14:29;;;;;;;;;7.00;5.40;;;;;-1.96;87.82;101479.66;5079655;28;8845;-59
2022/01/11 06:16:57;;;;;;;;;2.60;2.20;;;;;-1.99;87.34;101485.75;5086283;28;8902;-59
2022/01/11 06:19:28;;;;;;;;;4.60;4.60;;;;;-1.99;87.83;101493.59;5085921;28;9828;-60
2022/01/11 06:21:56;;;;;;;;;3.40;3.40;;;;;-1.98;87.63;101487.50;5086486;28;9475;-59
2022/01/11 06:24:23;;;;;;;;;3.60;3.60;;;;;-1.95;88.16;101491.84;5078521;28;8890;-59
2022/01/11 06:26:51;;;;;;;;;5.00;3.60;;;;;-1.93;87.85;101497.91;5084757;28;8914;-59
2022/01/11 06:29:19;;;;;;;;;2.60;2.60;;;;;-1.93;88.51;101492.69;5082936;28;8981;-59
2022/01/11 06:31:47;;;;;;;;;4.80;4.00;;;;;-1.93;87.62;101506.63;5078031;28;8899;-59
2022/01/11 06:34:15;;;;;;;;;7.80;5.20;;;;;-1.92;87.94;101504.84;5080604;28;8865;-59
2022/01/11 06:36:43;;;;;;;;;3.00;3.00;;;;;-1.90;87.69;101508.34;5082642;28;8857;-59
2022/01/11 06:39:10;;;;;;;;;3.20;3.00;;;;;-1.87;87.79;101503.09;5079451;28;8861;-60
2022/01/11 06:41:38;;;;;;;;;3.60;3.60;;;;;-1.86;87.91;101502.22;5069807;28;8907;-59
2022/01/11 06:44:06;;;;;;;;;4.80;3.40;;;;;-1.85;87.83;101507.44;5069379;28;8865;-59
2022/01/11 06:46:34;;;;;;;;;5.20;3.60;;;;;-1.84;87.97;101506.56;5073560;28;8867;-59
2022/01/11 06:49:04;;;;;;;;;1.00;1.00;;;;;-1.82;87.58;101507.41;5068595;28;8905;-59
2022/01/11 06:51:31;;;;;;;;;2.60;2.60;;;;;-1.80;87.96;101510.03;5067120;28;8961;-59
2022/01/11 06:53:59;;;;;;;;;5.60;5.00;;;;;-1.76;87.96;101514.38;5068026;28;8879;-59
2022/01/11 06:56:27;;;;;;;;;0.80;0.40;;;;;-1.76;87.81;101517.84;5072497;28;8879;-59
2022/01/11 06:58:55;;;;;;;;;3.40;2.20;;;;;-1.79;87.76;101515.25;5066165;28;8991;-59
2022/01/11 07:01:22;;;;;;;;;3.60;3.60;;;;;-1.80;87.61;101520.47;5066945;28;8961;-59
2022/01/11 07:03:50;;;;;;;;;6.80;4.40;;;;;-1.80;87.75;101529.19;5063002;28;9687;-59
2022/01/11 07:06:18;;;;;;;;;2.60;2.60;;;;;-1.80;87.62;101520.47;5066475;28;9193;-59
2022/01/11 07:08:46;;;;;;;;;4.80;4.80;;;;;-1.79;87.24;101524.81;5071243;28;9326;-59
2022/01/11 07:11:18;;;;;;;;;4.20;3.40;;;;;-1.78;87.12;101526.53;5075425;28;9731;-59
2022/01/11 07:13:46;;;;;;;;;4.00;3.20;;;;;-1.76;87.62;101532.66;5075754;28;8984;-59
2022/01/11 07:16:14;;;;;;;;;1.00;0.00;;;;;-1.76;87.93;101535.25;5074288;28;9244;-59
2022/01/11 07:18:42;;;;;;;;;3.20;3.20;;;;;-1.78;87.86;101539.59;5075470;28;8904;-59
2022/01/11 07:21:09;;;;;;;;;4.00;3.60;;;;;-1.79;87.36;101543.09;5074475;28;9214;-59
2022/01/11 07:23:37;;;;;;;;;6.00;4.00;;;;;-1.82;87.43;101541.34;5074900;28;9291;-59
2022/01/11 07:26:07;;;;;;;;;4.00;3.60;;;;;-1.84;87.48;101537.88;5074287;28;8941;-59
2022/01/11 07:28:35;;;;;;;;;3.40;3.40;;;;;-1.87;87.30;101544.84;5073928;28;8865;-59
2022/01/11 07:31:03;;;;;;;;;4.00;4.00;;;;;-1.91;87.67;101543.16;5076903;28;8877;-59
2022/01/11 07:33:30;;;;;;;;;3.00;3.00;;;;;-1.92;87.40;101544.88;5074840;28;9165;-59
2022/01/11 07:35:59;;;;;;;;;3.60;3.40;;;;;-1.95;87.69;101546.63;5076129;28;8868;-59
2022/01/11 07:38:26;;;;;;;;;1.00;1.00;;;;;-1.98;87.80;101547.50;5074905;28;8922;-59
2022/01/11 07:40:54;;;;;;;;;6.00;5.20;;;;;-1.98;87.68;101549.25;5077120;28;8857;-59
2022/01/11 07:43:22;;;;;;;;;2.20;2.20;;;;;-1.93;87.92;101547.47;5076436;28;9177;-59
2022/01/11 07:45:50;;;;;;;;;1.00;1.00;;;;;-1.94;87.86;101557.06;5074959;28;9142;-59
2022/01/11 07:48:17;;;;;;;;;1.00;1.00;;;;;-1.94;87.85;101561.41;5075406;28;8889;-59
2022/01/11 07:50:45;;;;;;;;;1.00;1.00;;;;;-1.95;87.98;101559.69;5076314;28;8853;-59
2022/01/11 07:53:13;;;;;;;;;3.20;1.40;;;;;-1.97;87.67;101558.81;5077085;28;8865;-59
2022/01/11 07:55:41;;;;;;;;;0.00;0.00;;;;;-1.92;87.77;101555.31;5075110;28;8861;-59
2022/01/11 07:58:09;;;;;;;;;1.00;1.00;;;;;-1.89;88.08;101557.06;5072626;28;8994;-59
2022/01/11 08:00:37;;;;;;;;;3.20;2.60;;;;;-1.88;87.89;101553.56;5075656;28;8861;-59
2022/01/11 08:03:05;;;;;;;;;7.20;7.20;;;;;-1.86;87.88;101564.84;5077918;28;8887;-59
2022/01/11 08:05:33;;;;;;;;;2.60;2.60;;;;;-1.86;87.65;101575.28;5071315;28;8872;-59
2022/01/11 08:08:01;;;;;;;;;1.40;1.00;;;;;-1.84;87.65;101574.44;5073043;28;8845;-59
2022/01/11 08:10:29;;;;;;;;;0.60;0.60;;;;;-1.82;88.07;101569.22;5074439;28;8857;-59
2022/01/11 08:12:57;;;;;;;;;5.20;4.00;;;;;-1.77;87.93;101567.44;5071897;28;8857;-59
2022/01/11 08:15:24;;;;;;;;;1.00;0.00;;;;;-1.72;88.00;101565.69;5074681;28;9138;-59
2022/01/11 08:17:52;;;;;;;;;5.80;5.80;;;;;-1.66;88.17;101563.03;5074805;28;8869;-59
2022/01/11 08:20:20;;;;;;;;;6.00;6.00;;;;;-1.57;87.63;101565.59;5074587;28;8889;-59
2022/01/11 08:22:48;;;;;;;;;4.00;3.60;;;;;-1.51;87.71;101569.03;5074927;28;8849;-59
2022/01/11 08:25:16;;;;;;;;;2.20;1.80;;;;;-1.45;88.02;101573.41;5076091;28;8864;-59
2022/01/11 08:27:44;;;;;;;;;3.40;3.00;;;;;-1.39;87.57;101573.34;5074274;28;9136;-59
2022/01/11 08:30:12;;;;;;;;;9.00;6.60;;;;;-1.33;87.30;101573.31;5074573;28;8860;-59
2022/01/11 08:32:41;;;;;;;;;3.40;1.80;;;;;-1.27;87.16;101579.38;5074929;28;8853;-59
2022/01/11 08:35:09;;;;;;;;;6.20;4.00;;;;;-1.20;87.30;101574.97;5070882;28;8873;-59
2022/01/11 08:37:36;;;;;;;;;4.00;4.00;;;;;-1.13;87.00;101574.91;5073523;28;9173;-59
2022/01/11 08:40:04;;;;;;;;;3.40;3.40;;;;;-0.99;87.85;101569.63;5076545;28;9592;-59
2022/01/11 08:42:32;;;;;;;;;6.80;6.80;;;;;-0.81;87.71;101570.34;5078296;28;9368;-59
2022/01/11 08:45:00;;;;;;;;;5.60;4.80;;;;;-0.58;87.36;101572.75;5075053;28;8853;-59
2022/01/11 08:47:30;;;;;;;;;6.20;4.00;;;;;-0.44;87.08;101570.91;5075621;28;8938;-59
2022/01/11 08:49:59;;;;;;;;;3.80;3.80;;;;;-0.34;87.28;101569.94;5077294;28;9008;-59
2022/01/11 08:52:26;;;;;;;;;7.80;7.40;;;;;-0.27;86.34;101563.75;5073181;28;9549;-59
2022/01/11 08:54:54;;;;;;;;;6.00;6.00;;;;;-0.23;86.44;101566.31;5072363;28;8910;-59
2022/01/11 08:57:22;;;;;;;;;9.00;7.00;;;;;-0.21;86.31;101569.81;5076043;28;9641;-59
2022/01/11 08:59:50;;;;;;;;;2.20;1.40;;;;;-0.15;86.64;101568.88;5072683;28;9095;-59
2022/01/11 09:02:20;;;;;;;;;6.00;4.00;;;;;-0.11;86.19;101574.06;5078013;28;9284;-59
2022/01/11 09:04:50;;;;;;;;;7.40;5.40;;;;;-0.06;86.62;101574.88;5073464;28;8849;-59
2022/01/11 09:07:18;;;;;;;;;6.20;5.60;;;;;-0.01;86.31;101575.69;5066058;28;8849;-59
2022/01/11 09:09:46;;;;;;;;;3.60;3.60;;;;;0.04;86.21;101577.41;5070586;28;8872;-59
2022/01/11 09:12:15;;;;;;;;;3.80;3.80;;;;;0.08;85.72;101570.38;5073868;28;9715;-59
2022/01/11 09:14:42;;;;;;;;;6.20;5.60;;;;;0.10;86.06;101577.28;5071057;28;8971;-59
2022/01/11 09:17:11;;;;;;;;;6.40;6.40;;;;;0.11;85.90;101576.44;5073531;28;8853;-59
2022/01/11 09:19:39;;;;;;;;;3.00;3.00;;;;;0.12;85.95;101575.56;5077890;28;9035;-59
2022/01/11 09:22:07;;;;;;;;;5.00;3.20;;;;;0.17;85.42;101580.75;5077423;28;8991;-59
2022/01/11 09:24:35;;;;;;;;;6.60;5.60;;;;;0.27;85.68;101575.38;5075724;28;8845;-59
2022/01/11 09:27:04;;;;;;;;;5.20;4.00;;;;;0.42;86.07;101575.19;5075767;28;8891;-59
2022/01/11 09:29:32;;;;;;;;;6.20;6.20;;;;;0.53;85.40;101581.16;5075953;28;8981;-59
2022/01/11 09:32:02;;;;;;;;;9.00;7.80;;;;;0.59;85.28;101583.69;5077011;28;8865;-59
2022/01/11 09:34:30;;;;;;;;;5.60;5.60;;;;;0.61;85.29;101589.78;5078305;28;8849;-59
2022/01/11 09:36:57;;;;;;;;;6.40;6.40;;;;;0.64;85.04;101587.13;5078903;28;9201;-59
2022/01/11 09:39:25;;;;;;;;;6.20;6.00;;;;;0.64;85.27;101587.13;5076075;28;8870;-59
2022/01/11 09:41:58;;;;;;;;;4.00;4.00;;;;;0.66;85.14;101589.72;5073946;28;8965;-59
2022/01/11 09:44:26;;;;;;;;;6.80;6.00;;;;;0.69;85.34;101580.06;5075907;28;8879;-59
2022/01/11 09:46:54;;;;;;;;;4.40;4.00;;;;;0.76;85.48;101580.84;5077636;28;9115;-59
2022/01/11 09:49:21;;;;;;;;;5.60;4.80;;;;;0.84;84.96;101589.47;5076164;28;8890;-59
2022/01/11 09:51:53;;;;;;;;;7.60;7.60;;;;;0.95;84.74;101585.81;5075139;28;8868;-58
2022/01/11 09:54:24;;;;;;;;;1.00;1.00;;;;;1.11;84.93;101587.31;5071978;28;8975;-58
2022/01/11 09:56:51;;;;;;;;;1.00;1.00;;;;;1.30;84.64;101580.03;5074533;28;9228;-57
2022/01/11 09:59:19;;;;;;;;;1.40;1.40;;;;;1.47;84.04;101583.25;5075396;28;9138;-58
2022/01/11 10:01:48;;;;;;;;;6.20;5.40;;;;;1.63;84.48;101574.22;5076301;28;8852;-58
2022/01/11 10:04:16;;;;;;;;;2.20;2.20;;;;;1.83;83.46;101583.47;5078130;28;8849;-58
2022/01/11 10:06:44;;;;;;;;;3.60;3.60;;;;;2.08;83.22;101583.88;5074672;28;9771;-58
2022/01/11 10:09:12;;;;;;;;;6.80;6.00;;;;;2.39;82.66;101572.75;5076522;28;8857;-58
2022/01/11 10:11:39;;;;;;;;;4.80;4.80;;;;;2.95;81.63;101572.38;5077309;28;9015;-58
2022/01/11 10:14:07;;;;;;;;;3.20;2.60;;;;;3.69;79.89;101557.41;5072425;28;9204;-59
2022/01/11 10:16:35;;;;;;;;;6.80;6.40;;;;;4.40;78.92;101555.38;5074823;28;8867;-59
2022/01/11 10:19:03;;;;;;;;;5.40;5.40;;;;;5.27;77.99;101541.25;5073944;28;8869;-59
2022/01/11 10:21:30;;;;;;;;;6.80;6.00;;;;;6.33;75.88;101544.59;5075918;28;8856;-59
2022/01/11 10:23:58;;;;;;;;;6.00;6.00;;;;;7.47;74.02;101534.72;5077277;28;8849;-59
2022/01/11 10:26:26;;;;;;;;;3.40;3.40;;;;;8.52;72.70;101528.31;5073723;28;8875;-60
2022/01/11 10:28:56;;;;;;;;;3.60;3.20;;;;;9.44;70.89;101530.88;5076238;28;8853;-60
2022/01/11 10:31:23;;;;;;;;;7.80;6.60;;;;;10.30;69.89;101527.28;5074092;28;8953;-60
2022/01/11 10:33:51;;;;;;;;;7.40;7.40;;;;;11.07;68.79;101517.69;5073495;28;8999;-60
2022/01/11 10:36:22;;;;;;;;;7.50;7.00;;;;;11.60;68.74;101520.81;5070001;28;8849;-60
2022/01/11 10:38:50;;;;;;;;;7.00;6.25;;;;;11.90;68.12;101519.00;5070847;28;8976;-60
2022/01/11 10:41:18;;;;;;;;;6.25;6.00;;;;;12.26;68.22;101520.28;5075756;28;8893;-60
2022/01/11 10:43:46;;;;;;;;;9.00;6.75;;;;;12.88;67.42;101517.22;5076414;28;8949;-60
2022/01/11 10:46:16;;;;;;;;;7.50;6.75;;;;;13.46;66.45;101512.50;5074020;28;8876;-61
2022/01/11 10:48:44;;;;;;;;;4.50;3.50;;;;;14.00;65.66;101511.44;5069339;28;9162;-60
2022/01/11 10:51:11;;;;;;;;;5.00;4.50;;;;;14.48;65.32;101516.97;5071191;28;8876;-60
2022/01/11 10:53:39;;;;;;;;;6.50;5.50;;;;;14.92;64.56;101513.78;5070961;28;9205;-60
2022/01/11 10:56:07;;;;;;;;;3.00;3.00;;;;;15.20;64.04;101505.44;5073848;28;8857;-60
2022/01/11 10:58:44;;;;;;;;;3.50;3.50;;;;;15.47;64.16;101506.94;5074086;28;8888;-60
2022/01/11 11:01:12;;;;;;;;;4.00;4.00;;;;;15.62;64.32;101513.00;5074473;28;8894;-60
2022/01/11 11:03:40;;;;;;;;;3.50;3.50;;;;;15.69;64.50;101514.28;5074455;28;8852;-60
2022/01/11 11:06:10;;;;;;;;;3.50;3.50;;;;;15.48;65.37;101524.78;5070672;28;9543;-60
2022/01/11 11:08:39;;;;;;;;;6.00;6.00;;;;;15.33;65.96;101517.00;5073805;28;8853;-60
2022/01/11 11:11:07;;;;;;;;;4.00;4.00;;;;;15.07;66.53;101523.38;5075207;28;8881;-59
2022/01/11 11:13:35;;;;;;;;;7.00;3.25;;;;;15.13;67.19;101520.25;5075517;28;9233;-60
2022/01/11 11:16:02;;;;;;;;;2.50;2.00;;;;;15.19;66.56;101526.06;5071588;28;9308;-59
2022/01/11 11:18:30;;;;;;;;;4.00;4.00;;;;;15.20;66.57;101521.53;5076364;28;9180;-60
2022/01/11 11:20:58;;;;;;;;;3.00;3.00;;;;;15.27;66.30;101528.16;5070103;28;8996;-59
2022/01/11 11:23:26;;;;;;;;;6.00;4.00;;;;;15.38;65.64;101525.56;5074123;28;9011;-59
2022/01/11 11:25:58;;;;;;;;;1.00;1.00;;;;;15.24;66.55;101520.34;5075317;28;9333;-59
2022/01/11 11:28:25;;;;;;;;;4.00;3.75;;;;;15.17;67.02;101527.13;5076068;28;8864;-59
2022/01/11 11:30:54;;;;;;;;;3.75;3.25;;;;;15.17;66.74;101527.13;5075540;28;8877;-59
2022/01/11 11:33:21;;;;;;;;;3.50;3.50;;;;;14.95;67.16;101517.09;5073441;28;8864;-60
2022/01/11 11:35:49;;;;;;;;;0.00;0.00;;;;;14.89;67.86;101524.72;5076010;28;8964;-60
2022/01/11 11:38:17;;;;;;;;;3.00;3.00;;;;;14.89;67.82;101536.34;5076381;28;8853;-60
2022/01/11 11:40:44;;;;;;;;;3.67;1.67;;;;;14.90;67.98;101532.69;5069223;28;9777;-60